Time;durP1;ratioP1;P1;durP2;ratioP2;P2;SDS_P1;SDS_P2;PMS_P1;PMS_P2;Temp;Humidity;BMP_temperature;BMP_pressure;BME280_temperature;BME280_humidity;BME280_pressure;Samples;Min_cycle;Max_cycle;Signal;HPM_P1;HPM_P2
2022/03/08 00:01:03;;;;;;;11.38;6.07;;;0.30;99.90;;;;;;5079257;28;20056;-60
2022/03/08 00:03:29;;;;;;;16.80;6.20;;;0.30;99.90;;;;;;5087206;28;20040;-61
2022/03/08 00:05:55;;;;;;;9.40;6.22;;;0.30;99.90;;;;;;5080522;28;20037;-61
2022/03/08 00:08:21;;;;;;;10.82;7.00;;;0.30;99.90;;;;;;5086510;28;20028;-57
2022/03/08 00:10:47;;;;;;;12.45;6.70;;;0.30;99.90;;;;;;5080787;28;20488;-59
2022/03/08 00:13:12;;;;;;;10.43;6.90;;;0.30;99.90;;;;;;5086294;28;20035;-59
2022/03/08 00:15:38;;;;;;;12.45;7.55;;;0.30;99.90;;;;;;5076544;28;20072;-61
2022/03/08 00:18:04;;;;;;;11.02;7.13;;;0.30;99.90;;;;;;5055996;28;20033;-58
2022/03/08 00:20:30;;;;;;;12.38;6.90;;;0.30;99.90;;;;;;5061806;28;20109;-60
2022/03/08 00:22:56;;;;;;;11.00;6.95;;;0.30;99.90;;;;;;5073297;28;20036;-59
2022/03/08 00:25:22;;;;;;;15.45;7.63;;;0.30;99.90;;;;;;5063387;28;20044;-60
2022/03/08 00:27:48;;;;;;;11.30;8.15;;;0.30;99.90;;;;;;5070797;28;20037;-63
2022/03/08 00:30:16;;;;;;;13.32;8.25;;;0.30;99.90;;;;;;5064092;28;20453;-57
2022/03/08 00:32:42;;;;;;;16.00;8.60;;;0.30;99.90;;;;;;5072895;28;20119;-56
2022/03/08 00:35:09;;;;;;;14.20;7.60;;;0.30;99.90;;;;;;5063324;28;20132;-61
2022/03/08 00:37:35;;;;;;;15.63;7.60;;;0.30;99.90;;;;;;5073660;28;20532;-62
2022/03/08 00:40:02;;;;;;;12.65;8.05;;;0.20;99.90;;;;;;5064161;28;20060;-60
2022/03/08 00:42:28;;;;;;;16.15;8.15;;;0.20;99.90;;;;;;5072981;28;20089;-62
2022/03/08 00:44:53;;;;;;;13.65;8.38;;;0.20;99.90;;;;;;5058152;28;20044;-62
2022/03/08 00:47:19;;;;;;;12.77;8.93;;;0.10;99.90;;;;;;5070948;28;20044;-60
2022/03/08 00:49:44;;;;;;;14.77;9.40;;;0.10;99.90;;;;;;5058352;28;20072;-61
2022/03/08 00:52:10;;;;;;;12.90;7.82;;;0.20;99.90;;;;;;5073082;28;20037;-60
2022/03/08 00:54:36;;;;;;;16.25;8.77;;;0.10;99.90;;;;;;5056090;28;20049;-59
2022/03/08 00:57:03;;;;;;;13.05;9.23;;;0.20;99.90;;;;;;5070253;28;20029;-61
2022/03/08 00:59:30;;;;;;;15.60;8.32;;;0.10;99.90;;;;;;5057902;28;20075;-60
2022/03/08 01:01:56;;;;;;;15.05;9.32;;;0.10;99.90;;;;;;5069316;28;20037;-59
2022/03/08 01:04:21;;;;;;;13.80;8.85;;;0.10;99.90;;;;;;5068946;28;20075;-59
2022/03/08 01:06:47;;;;;;;18.67;9.10;;;0.10;99.90;;;;;;5066250;28;20045;-60
2022/03/08 01:09:13;;;;;;;15.40;9.70;;;0.20;99.90;;;;;;5068449;28;20071;-61
2022/03/08 01:11:39;;;;;;;15.95;9.93;;;0.20;99.90;;;;;;5070399;28;20527;-60
2022/03/08 01:14:07;;;;;;;14.65;9.35;;;0.20;99.90;;;;;;5069386;28;20036;-62
2022/03/08 01:16:33;;;;;;;16.98;10.07;;;0.10;99.90;;;;;;5061654;28;20045;-61
2022/03/08 01:18:59;;;;;;;16.38;9.65;;;0.10;99.90;;;;;;5061804;28;20045;-61
2022/03/08 01:21:25;;;;;;;18.80;10.18;;;0.20;99.90;;;;;;5061426;28;20043;-61
2022/03/08 01:23:51;;;;;;;15.85;9.88;;;0.20;99.90;;;;;;5061393;28;20370;-61
2022/03/08 01:26:16;;;;;;;16.27;9.88;;;0.20;99.90;;;;;;5061636;28;20072;-61
2022/03/08 01:28:42;;;;;;;18.83;10.25;;;0.20;99.90;;;;;;5062692;28;20093;-61
2022/03/08 01:31:08;;;;;;;17.75;10.45;;;0.30;99.90;;;;;;5057958;28;20036;-61
2022/03/08 01:33:35;;;;;;;14.40;9.25;;;0.30;99.90;;;;;;5064500;28;20113;-60
2022/03/08 01:36:00;;;;;;;22.42;9.55;;;0.30;99.90;;;;;;5058138;28;20047;-60
2022/03/08 01:38:26;;;;;;;17.48;9.90;;;0.30;99.90;;;;;;5063152;28;20037;-61
2022/03/08 01:40:52;;;;;;;15.65;9.85;;;0.30;99.90;;;;;;5065475;28;20093;-60
2022/03/08 01:43:17;;;;;;;19.67;9.75;;;0.30;99.90;;;;;;5062106;28;20045;-60
2022/03/08 01:45:43;;;;;;;16.70;9.40;;;0.40;99.90;;;;;;5059005;28;20571;-61
2022/03/08 01:48:09;;;;;;;18.08;9.70;;;0.30;99.90;;;;;;5074464;28;20460;-60
2022/03/08 01:50:35;;;;;;;18.98;8.48;;;0.40;99.90;;;;;;5060457;28;20045;-60
2022/03/08 01:53:00;;;;;;;19.67;10.10;;;0.40;99.90;;;;;;5054743;28;20032;-60
2022/03/08 01:55:26;;;;;;;14.80;8.70;;;0.40;99.90;;;;;;5057598;28;20089;-61
2022/03/08 01:57:53;;;;;;;16.20;8.80;;;0.40;99.90;;;;;;5064730;28;20036;-61
2022/03/08 02:00:23;;;;;;;14.13;8.20;;;0.40;99.90;;;;;;5056713;28;20041;-63
2022/03/08 02:02:49;;;;;;;17.33;9.23;;;0.40;99.90;;;;;;5063813;28;20120;-62
2022/03/08 02:05:15;;;;;;;14.65;8.23;;;0.40;99.90;;;;;;5055528;28;20117;-61
2022/03/08 02:07:42;;;;;;;13.15;7.93;;;0.40;99.90;;;;;;5069227;28;20050;-61
2022/03/08 02:10:08;;;;;;;22.52;9.95;;;0.40;99.90;;;;;;5064372;28;20040;-61
2022/03/08 02:12:34;;;;;;;14.55;9.02;;;0.40;99.90;;;;;;5068116;28;20664;-62
2022/03/08 02:15:14;;;;;;;14.68;8.82;;;0.40;99.90;;;;;;5056085;28;20082;-62
2022/03/08 02:17:40;;;;;;;19.60;8.77;;;0.40;99.90;;;;;;5065316;28;20045;-58
2022/03/08 02:20:07;;;;;;;14.45;9.43;;;0.40;99.90;;;;;;5056405;28;20105;-57
2022/03/08 02:22:33;;;;;;;14.77;8.90;;;0.40;99.90;;;;;;5066367;28;20048;-60
2022/03/08 02:25:08;;;;;;;15.60;8.85;;;0.40;99.90;;;;;;5055706;28;20039;-58
2022/03/08 02:27:36;;;;;;;18.25;9.68;;;0.30;99.90;;;;;;5067724;28;20044;-61
2022/03/08 02:30:02;;;;;;;16.38;10.38;;;0.30;99.90;;;;;;5063309;28;20068;-60
2022/03/08 02:32:28;;;;;;;16.50;9.52;;;0.30;99.90;;;;;;5067852;28;20086;-57
2022/03/08 02:34:54;;;;;;;24.02;9.93;;;0.30;99.90;;;;;;5051723;28;20481;-58
2022/03/08 02:37:21;;;;;;;16.55;9.73;;;0.30;99.90;;;;;;5067284;28;20025;-60
2022/03/08 02:39:46;;;;;;;15.57;9.90;;;0.20;99.90;;;;;;5044243;28;20777;-60
2022/03/08 02:42:12;;;;;;;19.45;11.38;;;0.20;99.90;;;;;;5067499;28;20034;-60
2022/03/08 02:44:37;;;;;;;21.58;11.93;;;0.20;99.90;;;;;;5057271;28;20043;-61
2022/03/08 02:47:04;;;;;;;20.77;11.55;;;0.20;99.90;;;;;;5065432;28;20036;-61
2022/03/08 02:49:31;;;;;;;19.08;11.50;;;0.20;99.90;;;;;;5060088;28;20040;-62
2022/03/08 02:51:57;;;;;;;18.55;10.60;;;0.20;99.90;;;;;;5059987;28;20051;-61
2022/03/08 02:54:24;;;;;;;23.42;11.20;;;0.20;99.90;;;;;;5057390;28;20032;-59
2022/03/08 02:56:51;;;;;;;21.25;11.43;;;0.10;99.90;;;;;;5056096;28;20044;-61
2022/03/08 02:59:21;;;;;;;22.90;11.05;;;0.10;99.90;;;;;;5054919;28;20107;-60
2022/03/08 03:01:47;;;;;;;21.92;11.27;;;0.10;99.90;;;;;;5063348;28;20119;-60
2022/03/08 03:04:12;;;;;;;17.92;11.13;;;0.00;99.90;;;;;;5059057;28;20124;-61
2022/03/08 03:06:39;;;;;;;19.95;11.82;;;0.00;99.90;;;;;;5060600;28;20045;-60
2022/03/08 03:09:05;;;;;;;20.90;11.38;;;-0.10;99.90;;;;;;5048427;28;20456;-62
2022/03/08 03:11:31;;;;;;;17.55;11.00;;;-0.10;99.90;;;;;;5060704;28;20733;-61
2022/03/08 03:13:56;;;;;;;21.50;11.77;;;-0.10;99.90;;;;;;5062702;28;20073;-61
2022/03/08 03:16:22;;;;;;;19.65;11.18;;;-0.10;99.90;;;;;;5063036;28;20044;-60
2022/03/08 03:18:48;;;;;;;19.13;11.45;;;-0.10;99.90;;;;;;5064459;28;20120;-61
2022/03/08 03:21:13;;;;;;;23.48;12.15;;;-0.20;99.90;;;;;;5059207;28;20028;-60
2022/03/08 03:23:39;;;;;;;18.10;10.48;;;-0.20;99.90;;;;;;5067417;28;20086;-61
2022/03/08 03:26:04;;;;;;;21.75;12.32;;;-0.20;99.90;;;;;;5057914;28;20578;-60
2022/03/08 03:28:30;;;;;;;20.35;11.82;;;-0.20;99.90;;;;;;5069238;28;20564;-60
2022/03/08 03:30:55;;;;;;;19.73;11.35;;;-0.30;99.90;;;;;;5055080;28;20043;-60
2022/03/08 03:33:21;;;;;;;20.63;11.43;;;-0.30;99.90;;;;;;5070252;28;20036;-62
2022/03/08 03:35:46;;;;;;;23.65;10.95;;;-0.40;99.90;;;;;;5052733;28;20136;-61
2022/03/08 03:38:12;;;;;;;21.38;11.70;;;-0.40;99.90;;;;;;5066899;28;20037;-60
2022/03/08 03:40:38;;;;;;;19.35;11.48;;;-0.40;99.90;;;;;;5061743;28;20075;-61
2022/03/08 03:43:04;;;;;;;21.25;12.10;;;-0.40;99.90;;;;;;5068496;28;20037;-58
2022/03/08 03:45:30;;;;;;;25.48;12.15;;;-0.40;99.90;;;;;;5059614;28;20046;-61
2022/03/08 03:47:55;;;;;;;22.10;10.93;;;-0.40;99.90;;;;;;5065752;28;20036;-61
2022/03/08 03:50:21;;;;;;;25.38;11.27;;;-0.40;99.90;;;;;;5060620;28;20040;-61
2022/03/08 03:52:47;;;;;;;18.75;10.80;;;-0.40;99.90;;;;;;5065225;28;20439;-55
2022/03/08 03:55:13;;;;;;;19.20;10.57;;;-0.40;99.90;;;;;;5060874;28;20036;-60
2022/03/08 03:57:39;;;;;;;24.45;12.10;;;-0.40;99.90;;;;;;5076729;28;20071;-61
2022/03/08 04:00:08;;;;;;;19.98;11.10;;;-0.40;99.90;;;;;;5059716;28;20645;-60
2022/03/08 04:02:34;;;;;;;21.45;11.35;;;-0.40;99.90;;;;;;5075631;28;20097;-60
2022/03/08 04:04:59;;;;;;;17.67;10.57;;;-0.40;99.90;;;;;;5062668;28;20044;-61
2022/03/08 04:07:25;;;;;;;20.90;10.23;;;-0.40;99.90;;;;;;5076495;28;20079;-60
2022/03/08 04:09:50;;;;;;;18.67;10.43;;;-0.40;99.90;;;;;;5065237;28;20111;-57
2022/03/08 04:12:16;;;;;;;16.67;9.55;;;-0.30;99.90;;;;;;5076299;28;20927;-61
2022/03/08 04:14:42;;;;;;;21.27;10.23;;;-0.30;99.90;;;;;;5058604;28;20037;-61
2022/03/08 04:17:07;;;;;;;19.88;11.05;;;-0.30;99.90;;;;;;5072481;28;20098;-59
2022/03/08 04:19:33;;;;;;;23.70;10.52;;;-0.30;99.90;;;;;;5059989;28;20091;-59
2022/03/08 04:21:59;;;;;;;19.98;10.27;;;-0.30;99.90;;;;;;5073856;28;20094;-57
2022/03/08 04:24:25;;;;;;;22.70;11.85;;;-0.40;99.90;;;;;;5062753;28;20067;-60
2022/03/08 04:26:51;;;;;;;16.92;10.57;;;-0.40;99.90;;;;;;5072401;28;20032;-61
2022/03/08 04:29:17;;;;;;;18.00;10.50;;;-0.40;99.90;;;;;;5065887;28;20137;-57
2022/03/08 04:31:43;;;;;;;23.17;12.05;;;-0.40;99.90;;;;;;5070397;28;20054;-56
2022/03/08 04:34:08;;;;;;;20.88;11.93;;;-0.40;99.90;;;;;;5066121;28;20568;-62
2022/03/08 04:36:34;;;;;;;20.60;11.82;;;-0.40;99.90;;;;;;5062448;28;20528;-57
2022/03/08 04:39:00;;;;;;;18.73;10.85;;;-0.40;99.90;;;;;;5065081;28;20086;-61
2022/03/08 04:41:26;;;;;;;18.90;10.75;;;-0.40;99.90;;;;;;5068810;28;20112;-57
2022/03/08 04:43:51;;;;;;;18.70;11.10;;;-0.40;99.90;;;;;;5066686;28;20064;-58
2022/03/08 04:46:17;;;;;;;21.40;11.10;;;-0.50;99.90;;;;;;5068147;28;20165;-62
2022/03/08 04:48:43;;;;;;;21.13;11.23;;;-0.40;99.90;;;;;;5070623;28;20496;-61
2022/03/08 04:51:08;;;;;;;18.10;9.45;;;-0.50;99.90;;;;;;5063316;28;20044;-59
2022/03/08 04:53:34;;;;;;;17.88;9.73;;;-0.50;99.90;;;;;;5064445;28;20082;-61
2022/03/08 04:56:00;;;;;;;20.23;10.60;;;-0.40;99.90;;;;;;5060088;28;20032;-59
2022/03/08 04:58:25;;;;;;;18.25;10.80;;;-0.40;99.90;;;;;;5062929;28;20064;-62
2022/03/08 05:00:51;;;;;;;18.80;10.80;;;-0.40;99.90;;;;;;5063509;28;20037;-61
2022/03/08 05:03:17;;;;;;;20.48;9.80;;;-0.30;99.90;;;;;;5072964;28;20044;-57
2022/03/08 05:05:42;;;;;;;16.98;9.43;;;-0.30;99.90;;;;;;5065510;28;20072;-63
2022/03/08 05:08:08;;;;;;;15.55;8.90;;;-0.30;99.90;;;;;;5069772;28;20068;-60
2022/03/08 05:10:33;;;;;;;17.30;9.48;;;-0.30;99.90;;;;;;5057795;28;20043;-59
2022/03/08 05:13:00;;;;;;;16.00;9.07;;;-0.30;99.90;;;;;;5072445;28;20035;-59
2022/03/08 05:15:26;;;;;;;17.45;9.77;;;-0.20;99.90;;;;;;5066876;28;20041;-61
2022/03/08 05:17:52;;;;;;;20.73;10.30;;;-0.10;99.90;;;;;;5073291;28;20534;-61
2022/03/08 05:20:17;;;;;;;17.02;10.27;;;-0.10;99.90;;;;;;5063381;28;20056;-61
2022/03/08 05:22:43;;;;;;;18.40;10.82;;;-0.10;99.90;;;;;;5075571;28;20565;-60
2022/03/08 05:25:09;;;;;;;19.70;10.75;;;-0.10;99.90;;;;;;5062977;28;20044;-61
2022/03/08 05:27:35;;;;;;;18.17;10.80;;;-0.20;99.90;;;;;;5065491;28;20132;-61
2022/03/08 05:30:01;;;;;;;20.10;11.60;;;-0.20;99.90;;;;;;5056545;28;20119;-61
2022/03/08 05:32:26;;;;;;;19.50;10.52;;;-0.20;99.90;;;;;;5063666;28;20121;-61
2022/03/08 05:34:52;;;;;;;19.98;10.63;;;-0.20;99.90;;;;;;5062621;28;20357;-58
2022/03/08 05:37:17;;;;;;;19.27;11.35;;;-0.20;99.90;;;;;;5074510;28;20415;-61
2022/03/08 05:39:43;;;;;;;20.27;10.77;;;-0.20;99.90;;;;;;5050375;28;20036;-60
2022/03/08 05:42:09;;;;;;;18.10;10.60;;;-0.10;99.90;;;;;;5063123;28;20045;-61
2022/03/08 05:44:34;;;;;;;22.15;9.90;;;-0.20;99.90;;;;;;5055913;28;20039;-62
2022/03/08 05:47:00;;;;;;;20.30;11.00;;;-0.20;99.90;;;;;;5062175;28;20820;-61
2022/03/08 05:49:26;;;;;;;18.00;11.52;;;-0.20;99.90;;;;;;5048937;28;20124;-62
2022/03/08 05:51:51;;;;;;;25.17;11.35;;;-0.20;99.90;;;;;;5066240;28;20638;-60
2022/03/08 05:54:17;;;;;;;19.85;10.65;;;-0.20;99.90;;;;;;5056877;28;20447;-61
2022/03/08 05:56:43;;;;;;;16.98;10.07;;;-0.20;99.90;;;;;;5063216;28;20067;-60
2022/03/08 05:59:08;;;;;;;21.02;10.48;;;-0.20;99.90;;;;;;5058484;28;20052;-60
2022/03/08 06:01:34;;;;;;;23.35;10.98;;;-0.20;99.90;;;;;;5060427;28;20079;-61
2022/03/08 06:03:59;;;;;;;22.80;11.52;;;-0.20;99.90;;;;;;5057248;28;20029;-59
2022/03/08 06:06:25;;;;;;;19.70;10.98;;;-0.30;99.90;;;;;;5068553;28;20052;-61
2022/03/08 06:08:51;;;;;;;17.80;10.02;;;-0.30;99.90;;;;;;5068590;28;20119;-57
2022/03/08 06:11:17;;;;;;;21.75;10.02;;;-0.30;99.90;;;;;;5062525;28;20044;-60
2022/03/08 06:13:42;;;;;;;22.98;10.07;;;-0.20;99.90;;;;;;5053619;28;20051;-59
2022/03/08 06:16:08;;;;;;;19.17;9.40;;;-0.30;99.90;;;;;;5065285;28;20675;-64
2022/03/08 06:18:33;;;;;;;17.08;10.15;;;-0.20;99.90;;;;;;5080094;28;20036;-61
2022/03/08 06:20:59;;;;;;;18.13;9.48;;;-0.20;99.90;;;;;;5079878;28;20083;-61
2022/03/08 06:23:25;;;;;;;16.60;8.98;;;-0.20;99.90;;;;;;5075935;28;20123;-60
2022/03/08 06:25:50;;;;;;;17.65;10.15;;;-0.20;99.90;;;;;;5074245;28;20037;-61
2022/03/08 06:28:16;;;;;;;17.73;9.32;;;-0.30;99.90;;;;;;5063467;28;20812;-61
2022/03/08 06:30:42;;;;;;;15.75;9.23;;;-0.20;99.90;;;;;;5056034;28;20044;-62
2022/03/08 06:33:07;;;;;;;15.23;9.32;;;-0.30;99.90;;;;;;5069350;28;20119;-61
2022/03/08 06:35:33;;;;;;;15.73;9.55;;;-0.30;99.90;;;;;;5056814;28;20040;-61
2022/03/08 06:37:59;;;;;;;18.23;8.98;;;-0.30;99.90;;;;;;5067762;28;20115;-62
2022/03/08 06:40:25;;;;;;;17.35;9.77;;;-0.20;99.90;;;;;;5058546;28;20044;-62
2022/03/08 06:42:50;;;;;;;16.63;9.18;;;0.00;99.90;;;;;;5058889;28;20032;-60
2022/03/08 06:45:16;;;;;;;13.15;8.65;;;0.40;99.90;;;;;;5057433;28;20099;-62
2022/03/08 06:47:42;;;;;;;13.45;8.82;;;0.50;99.90;;;;;;5063267;28;20060;-59
2022/03/08 06:50:08;;;;;;;12.38;8.10;;;0.70;99.90;;;;;;5056581;28;20032;-62
2022/03/08 06:52:34;;;;;;;14.02;7.93;;;1.00;99.90;;;;;;5060737;28;20524;-61
2022/03/08 06:54:59;;;;;;;18.63;8.77;;;1.20;99.90;;;;;;5055399;28;20047;-61
2022/03/08 06:57:25;;;;;;;13.10;8.15;;;1.30;99.90;;;;;;5067401;28;20453;-61
2022/03/08 06:59:50;;;;;;;14.43;8.20;;;1.60;99.90;;;;;;5050381;28;20037;-61
2022/03/08 07:02:16;;;;;;;12.32;7.82;;;2.40;99.60;;;;;;5057738;28;20101;-62
2022/03/08 07:04:42;;;;;;;14.68;7.97;;;3.40;98.60;;;;;;5055242;28;20044;-63
2022/03/08 07:07:08;;;;;;;13.05;7.43;;;4.20;96.00;;;;;;5069021;28;20447;-62
2022/03/08 07:09:33;;;;;;;;;;;4.60;96.30;;;;;;5065760;28;20063;-62
2022/03/08 07:11:59;;;;;;;11.02;6.28;;;4.40;95.10;;;;;;5069893;28;19969;-61
2022/03/08 07:14:25;;;;;;;9.20;6.50;;;4.20;95.10;;;;;;5056029;28;20124;-61
2022/03/08 07:16:51;;;;;;;;;;;4.40;95.10;;;;;;5069718;28;20146;-61
2022/03/08 07:19:17;;;;;;;11.68;6.70;;;4.40;94.40;;;;;;5064130;28;19920;-63
2022/03/08 07:21:44;;;;;;;;;;;3.70;95.10;;;;;;5066359;28;20563;-62
2022/03/08 07:24:10;;;;;;;14.95;6.78;;;3.40;95.80;;;;;;5057464;28;19917;-59
2022/03/08 07:26:36;;;;;;;;;;;3.60;95.50;;;;;;5068435;28;20043;-61
2022/03/08 07:29:02;;;;;;;9.57;6.13;;;4.10;95.10;;;;;;5068645;28;19920;-61
2022/03/08 07:31:28;;;;;;;9.48;5.97;;;4.50;94.60;;;;;;5070371;28;20687;-61
2022/03/08 07:33:53;;;;;;;9.32;5.63;;;5.20;94.30;;;;;;5063697;28;20039;-62
2022/03/08 07:36:19;;;;;;;;;;;5.50;92.70;;;;;;5068999;28;20115;-63
2022/03/08 07:38:44;;;;;;;11.27;5.30;;;5.30;92.00;;;;;;5060089;28;19916;-62
2022/03/08 07:41:10;;;;;;;;;;;5.20;93.00;;;;;;5066183;28;20501;-62
2022/03/08 07:43:36;;;;;;;9.75;5.50;;;5.00;93.00;;;;;;5060980;28;20572;-63
2022/03/08 07:46:06;;;;;;;;;;;5.00;93.40;;;;;;5070755;28;20076;-62
2022/03/08 07:48:32;;;;;;;11.70;6.45;;;4.70;92.20;;;;;;5062163;28;20432;-62
2022/03/08 07:50:58;;;;;;;12.23;5.10;;;4.40;93.30;;;;;;5067075;28;20735;-62
2022/03/08 07:53:23;;;;;;;;;;;4.50;93.30;;;;;;5060492;28;20044;-62
2022/03/08 07:55:49;;;;;;;8.93;5.70;;;4.50;93.20;;;;;;5065095;28;19916;-62
2022/03/08 07:58:15;;;;;;;11.43;5.88;;;4.50;92.80;;;;;;5076181;28;20473;-63
2022/03/08 08:00:41;;;;;;;11.38;5.80;;;4.60;93.10;;;;;;5061635;28;20042;-62
2022/03/08 08:03:07;;;;;;;11.55;5.15;;;5.20;93.10;;;;;;5073565;28;20115;-62
2022/03/08 08:05:36;;;;;;;;;;;5.50;91.30;;;;;;5064489;28;20791;-63
2022/03/08 08:08:06;;;;;;;16.35;5.70;;;5.40;91.20;;;;;;5061356;28;19917;-62
2022/03/08 08:10:32;;;;;;;11.18;6.13;;;5.90;91.20;;;;;;5051257;28;20044;-62
2022/03/08 08:12:57;;;;;;;;;;;6.10;90.70;;;;;;5064418;28;20037;-63
2022/03/08 08:15:23;;;;;;;8.38;5.30;;;6.20;89.90;;;;;;5059658;28;19923;-62
2022/03/08 08:17:49;;;;;;;8.60;5.13;;;6.60;88.80;;;;;;5075933;28;20040;-63
2022/03/08 08:20:14;;;;;;;;;;;6.70;87.20;;;;;;5060569;28;20089;-62
2022/03/08 08:22:40;;;;;;;6.82;4.57;;;6.40;87.00;;;;;;5077776;28;19956;-60
2022/03/08 08:25:07;;;;;;;9.07;5.38;;;6.30;87.10;;;;;;5057873;28;20055;-62
2022/03/08 08:27:33;;;;;;;8.27;5.13;;;6.10;86.30;;;;;;5073164;28;20036;-62
2022/03/08 08:29:58;;;;;;;9.55;5.38;;;6.40;87.70;;;;;;5055194;28;20041;-61
2022/03/08 08:32:24;;;;;;;;;;;6.40;88.40;;;;;;5063492;28;20440;-62
2022/03/08 08:34:50;;;;;;;17.90;6.60;;;5.60;89.30;;;;;;5050875;28;19924;-62
2022/03/08 08:37:15;;;;;;;13.32;6.72;;;4.80;91.10;;;;;;5021666;22;20669;-62
2022/03/08 08:39:41;;;;;;;14.30;7.40;;;4.30;92.60;;;;;;4991476;28;20073;-62
2022/03/08 08:42:07;;;;;;;13.82;6.35;;;4.10;93.60;;;;;;5010332;28;20053;-62
2022/03/08 08:44:33;;;;;;;10.65;6.15;;;3.90;94.00;;;;;;5005961;28;20450;-63
2022/03/08 08:46:59;;;;;;;12.13;5.72;;;3.80;94.10;;;;;;5010543;28;20034;-62
2022/03/08 08:49:25;;;;;;;10.07;5.80;;;3.90;95.00;;;;;;5010617;28;20069;-62
2022/03/08 08:51:51;;;;;;;12.48;6.10;;;4.00;95.20;;;;;;5008567;28;20050;-62
2022/03/08 08:54:18;;;;;;;10.23;5.85;;;4.00;95.10;;;;;;5006237;28;20073;-62
2022/03/08 08:56:44;;;;;;;10.77;6.10;;;4.00;94.70;;;;;;5009564;28;20046;-63
2022/03/08 08:59:10;;;;;;;12.40;6.68;;;4.10;95.10;;;;;;5006365;28;20029;-62
2022/03/08 09:01:36;;;;;;;11.07;5.32;;;4.10;95.20;;;;;;5012305;28;20069;-62
2022/03/08 09:04:02;;;;;;;11.70;5.65;;;4.20;94.50;;;;;;5009638;28;20100;-62
2022/03/08 09:06:28;;;;;;;8.82;5.40;;;4.10;95.10;;;;;;5007685;28;20041;-61
2022/03/08 09:08:56;;;;;;;10.65;5.35;;;4.10;95.10;;;;;;5010634;28;20591;-63
2022/03/08 09:11:22;;;;;;;10.50;6.00;;;4.20;94.60;;;;;;5010920;28;20037;-63
2022/03/08 09:13:48;;;;;;;10.80;6.30;;;4.20;95.00;;;;;;5011975;28;20734;-62
2022/03/08 09:16:15;;;;;;;10.77;5.70;;;4.20;94.30;;;;;;5011056;28;20568;-61
2022/03/08 09:18:42;;;;;;;11.13;6.38;;;4.30;94.40;;;;;;5012288;28;20473;-62
2022/03/08 09:21:10;;;;;;;13.45;6.40;;;4.40;94.20;;;;;;5009949;28;20030;-62
2022/03/08 09:23:36;;;;;;;9.45;6.03;;;4.50;94.20;;;;;;5021800;28;20354;-63
2022/03/08 09:26:02;;;;;;;14.77;6.68;;;4.50;94.10;;;;;;5008777;28;20113;-64
2022/03/08 09:28:27;;;;;;;23.67;7.18;;;4.50;93.80;;;;;;4996677;28;20771;-62
2022/03/08 09:30:53;;;;;;;10.18;5.70;;;4.60;93.70;;;;;;5007278;28;20061;-62
2022/03/08 09:33:18;;;;;;;12.90;5.85;;;4.70;94.40;;;;;;5005233;28;20038;-62
2022/03/08 09:35:44;;;;;;;9.60;5.53;;;4.80;93.70;;;;;;5005561;28;20111;-63
2022/03/08 09:38:11;;;;;;;9.00;5.88;;;4.90;93.40;;;;;;5014603;28;20091;-65
2022/03/08 09:40:38;;;;;;;10.15;5.15;;;5.00;93.30;;;;;;4997216;28;20042;-64
2022/03/08 09:43:04;;;;;;;9.95;5.70;;;5.20;94.40;;;;;;5005469;28;20104;-62
2022/03/08 09:45:29;;;;;;;12.15;5.50;;;5.20;93.20;;;;;;5006024;28;20076;-61
2022/03/08 09:47:55;;;;;;;12.60;5.72;;;5.10;92.50;;;;;;4997342;28;20046;-63
2022/03/08 09:50:20;;;;;;;;;;;5.30;93.20;;;;;;5007212;28;20621;-62
2022/03/08 09:52:47;;;;;;;9.30;5.63;;;5.30;92.70;;;;;;4994979;28;20719;-63
2022/03/08 09:55:16;;;;;;;11.13;5.60;;;5.30;92.60;;;;;;5005758;28;20042;-62
2022/03/08 09:57:43;;;;;;;12.48;5.57;;;5.40;92.70;;;;;;5013702;28;20091;-63
2022/03/08 10:00:10;;;;;;;8.25;5.20;;;5.40;92.40;;;;;;5005923;28;20046;-62
2022/03/08 10:02:49;;;;;;;9.68;5.35;;;5.60;93.00;;;;;;5014160;28;20052;-63
2022/03/08 10:05:24;;;;;;;13.20;5.68;;;5.80;93.40;;;;;;5005828;28;20052;-62
2022/03/08 10:08:21;;;;;;;7.75;4.82;;;5.70;91.40;;;;;;5012826;28;20045;-63
2022/03/08 10:11:01;;;;;;;9.27;5.35;;;5.80;92.00;;;;;;5006930;28;20457;-63
2022/03/08 10:13:31;;;;;;;10.43;5.13;;;5.70;91.70;;;;;;5005619;28;20041;-63
2022/03/08 10:16:30;;;;;;;11.88;5.28;;;5.90;92.40;;;;;;5000938;28;20144;-63
2022/03/08 10:19:03;;;;;;;9.23;5.43;;;6.00;91.90;;;;;;4973382;28;20042;-63
2022/03/08 10:21:47;;;;;;;11.55;5.47;;;6.10;91.00;;;;;;5011889;28;20060;-64
2022/03/08 10:24:16;;;;;;;11.63;5.88;;;6.10;90.90;;;;;;5007756;28;20038;-63
2022/03/08 10:26:55;;;;;;;9.90;5.40;;;6.00;91.50;;;;;;5009005;28;20042;-63
2022/03/08 10:29:31;;;;;;;9.18;5.63;;;6.10;90.90;;;;;;4991284;28;20085;-63
2022/03/08 10:32:35;;;;;;;19.75;6.88;;;6.30;92.50;;;;;;5003261;28;20046;-63
2022/03/08 10:35:01;;;;;;;14.40;6.30;;;6.30;91.00;;;;;;4989850;28;20512;-64
2022/03/08 10:37:35;;;;;;;11.63;5.80;;;6.20;90.30;;;;;;5014908;28;20041;-64
2022/03/08 10:40:07;;;;;;;9.23;5.65;;;6.10;90.70;;;;;;4996780;28;20042;-64
2022/03/08 10:42:39;;;;;;;11.07;6.03;;;6.10;90.70;;;;;;5011782;28;20041;-63
2022/03/08 10:45:10;;;;;;;11.93;6.05;;;6.30;90.30;;;;;;5005130;28;20038;-63
2022/03/08 10:47:41;;;;;;;9.10;5.47;;;6.30;90.20;;;;;;5014088;28;20037;-63
2022/03/08 10:50:12;;;;;;;10.23;5.40;;;6.30;89.60;;;;;;5005015;28;20042;-64
2022/03/08 10:52:40;;;;;;;12.98;5.93;;;6.20;89.90;;;;;;5019163;28;20056;-64
2022/03/08 10:55:13;;;;;;;9.60;5.57;;;6.20;90.30;;;;;;5004245;28;20045;-64
2022/03/08 10:57:40;;;;;;;9.38;5.18;;;6.50;91.10;;;;;;5013937;28;20072;-63
2022/03/08 11:00:11;;;;;;;9.13;5.15;;;6.70;90.60;;;;;;5004203;28;20067;-64
2022/03/08 11:02:53;;;;;;;8.65;4.70;;;6.70;89.30;;;;;;5007859;28;20718;-64
2022/03/08 11:05:20;;;;;;;8.02;4.68;;;6.80;88.10;;;;;;5004695;28;20042;-63
2022/03/08 11:07:46;;;;;;;14.60;5.50;;;6.90;86.60;;;;;;5010995;28;20065;-64
2022/03/08 11:10:13;;;;;;;;;;;7.00;86.80;;;;;;5006047;28;20091;-64
2022/03/08 11:12:39;;;;;;;6.68;4.45;;;6.90;86.90;;;;;;5014353;28;19917;-63
2022/03/08 11:15:07;;;;;;;13.10;6.35;;;7.00;84.30;;;;;;5003840;28;20038;-64
2022/03/08 11:17:35;;;;;;;8.75;4.68;;;6.90;84.10;;;;;;4997465;28;20124;-64
2022/03/08 11:20:05;;;;;;;8.55;5.22;;;6.80;85.20;;;;;;5004315;28;20034;-63
2022/03/08 11:22:31;;;;;;;7.32;4.15;;;6.90;85.50;;;;;;5012990;28;20702;-63
2022/03/08 11:24:56;;;;;;;7.82;4.57;;;6.80;83.90;;;;;;4977875;28;20033;-63
2022/03/08 11:27:22;;;;;;;;;;;6.70;82.80;;;;;;4996016;28;20476;-63
2022/03/08 11:29:52;;;;;;;8.18;4.10;;;6.70;83.80;;;;;;5003646;28;20488;-64
2022/03/08 11:32:28;;;;;;;9.43;4.43;;;6.70;84.90;;;;;;5007428;28;20048;-64
2022/03/08 11:35:09;;;;;;;8.52;4.90;;;6.80;81.90;;;;;;5001658;28;20084;-64
2022/03/08 11:37:39;;;;;;;9.18;4.80;;;6.70;80.80;;;;;;5001620;28;20470;-63
2022/03/08 11:40:14;;;;;;;10.82;4.85;;;6.70;81.20;;;;;;5001608;28;20095;-63
2022/03/08 11:42:45;;;;;;;7.78;4.53;;;6.60;81.30;;;;;;5013214;28;20041;-64
2022/03/08 11:45:23;;;;;;;10.73;4.95;;;6.70;81.80;;;;;;5004173;28;20037;-64
2022/03/08 11:47:55;;;;;;;8.32;4.63;;;6.80;80.50;;;;;;5006240;28;20045;-63
2022/03/08 11:50:27;;;;;;;14.90;5.25;;;6.90;81.10;;;;;;5004911;28;20123;-63
2022/03/08 11:53:17;;;;;;;10.32;5.25;;;6.80;80.10;;;;;;5007977;28;20049;-63
2022/03/08 11:55:42;;;;;;;8.00;4.18;;;6.80;79.50;;;;;;5006177;28;20106;-62
2022/03/08 11:58:09;;;;;;;;;;;6.80;81.00;;;;;;5004700;28;20121;-63
2022/03/08 12:00:41;;;;;;;5.93;4.47;;;6.90;81.50;;;;;;5006616;28;20412;-64
2022/03/08 12:03:11;;;;;;;6.53;4.38;;;6.80;79.10;;;;;;5009342;28;20125;-63
2022/03/08 12:06:02;;;;;;;7.57;4.40;;;6.80;79.50;;;;;;5004947;28;20045;-64
2022/03/08 12:08:27;;;;;;;7.30;4.18;;;6.90;79.10;;;;;;5007525;28;20042;-63
2022/03/08 12:10:57;;;;;;;;;;;7.00;81.20;;;;;;5005838;28;20541;-63
2022/03/08 12:13:24;;;;;;;5.85;4.00;;;7.00;79.30;;;;;;5008415;28;19927;-63
2022/03/08 12:16:08;;;;;;;6.55;4.07;;;7.00;78.70;;;;;;5008661;28;20073;-63
2022/03/08 12:18:41;;;;;;;8.57;4.38;;;7.10;79.00;;;;;;5004032;28;20069;-63
2022/03/08 12:21:25;;;;;;;7.72;4.32;;;7.10;78.80;;;;;;5009699;28;20061;-64
2022/03/08 12:24:05;;;;;;;6.68;4.05;;;7.20;77.50;;;;;;5010300;28;20401;-63
2022/03/08 12:26:56;;;;;;;8.73;4.50;;;7.20;78.30;;;;;;5013431;28;20040;-63
2022/03/08 12:29:36;;;;;;;7.13;4.22;;;7.30;78.60;;;;;;5007191;28;20058;-64
2022/03/08 12:32:03;;;;;;;8.43;4.32;;;7.20;78.80;;;;;;5006476;28;20037;-64
2022/03/08 12:34:46;;;;;;;6.15;4.28;;;7.30;77.50;;;;;;5010134;28;20771;-62
2022/03/08 12:37:27;;;;;;;13.18;4.75;;;7.30;75.60;;;;;;5010169;28;20056;-63
2022/03/08 12:39:55;;;;;;;6.15;3.95;;;7.30;78.60;;;;;;5006743;28;20030;-64
2022/03/08 12:42:37;;;;;;;6.95;4.53;;;7.30;74.60;;;;;;5012789;28;20585;-63
2022/03/08 12:45:20;;;;;;;10.15;4.80;;;7.30;76.50;;;;;;5003772;28;20034;-63
2022/03/08 12:48:06;;;;;;;10.45;4.93;;;7.30;76.70;;;;;;5011643;28;20037;-64
2022/03/08 12:50:38;;;;;;;7.90;4.60;;;7.10;76.80;;;;;;5008341;28;20166;-63